sensor_id;sensor_type;location;lat;lon;timestamp;pressure;altitude;pressure_sealevel;temperature;humidity
62031;BME280;62035;52.094;5.112;2023-03-20T00:01:09;102036.44;;;10.19;100.00
62031;BME280;62035;52.094;5.112;2023-03-20T00:03:39;102037.19;;;10.21;100.00
62031;BME280;62035;52.094;5.112;2023-03-20T00:06:13;102043.03;;;10.37;100.00
62031;BME280;62035;52.094;5.112;2023-03-20T00:08:44;102033.09;;;10.28;100.00
62031;BME280;62035;52.094;5.112;2023-03-20T00:11:27;102034.31;;;10.35;100.00
62031;BME280;62035;52.094;5.112;2023-03-20T00:13:58;102030.19;;;10.42;100.00
62031;BME280;62035;52.094;5.112;2023-03-20T00:16:29;102016.03;;;10.42;100.00
62031;BME280;62035;52.094;5.112;2023-03-20T00:18:59;102006.97;;;10.33;100.00
62031;BME280;62035;52.094;5.112;2023-03-20T00:21:28;102003.84;;;10.50;100.00
62031;BME280;62035;52.094;5.112;2023-03-20T00:23:57;102000.81;;;10.44;100.00
62031;BME280;62035;52.094;5.112;2023-03-20T00:26:27;102011.44;;;10.21;100.00
62031;BME280;62035;52.094;5.112;2023-03-20T00:29:00;102006.63;;;10.38;100.00
62031;BME280;62035;52.094;5.112;2023-03-20T00:31:30;101984.25;;;10.62;100.00
62031;BME280;62035;52.094;5.112;2023-03-20T00:34:00;102014.47;;;10.84;100.00
62031;BME280;62035;52.094;5.112;2023-03-20T00:36:30;102021.50;;;10.62;100.00
62031;BME280;62035;52.094;5.112;2023-03-20T00:38:59;102024.19;;;10.74;100.00
62031;BME280;62035;52.094;5.112;2023-03-20T00:41:29;102023.69;;;10.57;100.00
62031;BME280;62035;52.094;5.112;2023-03-20T00:44:01;102030.69;;;10.58;100.00
62031;BME280;62035;52.094;5.112;2023-03-20T00:46:36;102034.59;;;10.65;100.00
62031;BME280;62035;52.094;5.112;2023-03-20T00:49:07;102039.78;;;10.78;100.00
62031;BME280;62035;52.094;5.112;2023-03-20T00:51:36;102042.81;;;10.62;100.00
62031;BME280;62035;52.094;5.112;2023-03-20T00:54:11;102053.94;;;10.67;100.00
62031;BME280;62035;52.094;5.112;2023-03-20T00:56:41;102059.41;;;10.66;100.00
62031;BME280;62035;52.094;5.112;2023-03-20T00:59:16;102049.22;;;10.60;100.00
62031;BME280;62035;52.094;5.112;2023-03-20T01:01:46;102046.44;;;10.61;100.00
62031;BME280;62035;52.094;5.112;2023-03-20T01:04:16;102039.66;;;10.35;100.00
62031;BME280;62035;52.094;5.112;2023-03-20T01:06:45;102038.66;;;10.25;100.00
62031;BME280;62035;52.094;5.112;2023-03-20T01:09:14;102029.84;;;10.35;100.00
62031;BME280;62035;52.094;5.112;2023-03-20T01:11:43;102055.59;;;10.35;100.00
62031;BME280;62035;52.094;5.112;2023-03-20T01:14:14;102049.78;;;10.41;100.00
62031;BME280;62035;52.094;5.112;2023-03-20T01:16:42;102046.13;;;10.20;100.00
62031;BME280;62035;52.094;5.112;2023-03-20T01:19:11;102043.88;;;10.02;100.00
62031;BME280;62035;52.094;5.112;2023-03-20T01:21:41;102049.06;;;10.04;100.00
62031;BME280;62035;52.094;5.112;2023-03-20T01:24:09;102045.28;;;10.19;100.00
62031;BME280;62035;52.094;5.112;2023-03-20T01:26:40;102063.13;;;10.17;100.00
62031;BME280;62035;52.094;5.112;2023-03-20T01:29:16;102052.34;;;9.96;100.00
62031;BME280;62035;52.094;5.112;2023-03-20T01:31:46;102052.09;;;9.99;100.00
62031;BME280;62035;52.094;5.112;2023-03-20T01:34:13;102049.81;;;10.06;100.00
62031;BME280;62035;52.094;5.112;2023-03-20T01:36:44;102023.66;;;9.65;100.00
62031;BME280;62035;52.094;5.112;2023-03-20T01:39:16;102030.66;;;9.90;100.00
62031;BME280;62035;52.094;5.112;2023-03-20T01:41:48;102031.19;;;9.95;100.00
62031;BME280;62035;52.094;5.112;2023-03-20T01:44:19;102041.03;;;9.82;100.00
62031;BME280;62035;52.094;5.112;2023-03-20T01:46:49;102017.59;;;9.52;100.00
62031;BME280;62035;52.094;5.112;2023-03-20T01:52:59;102066.19;;;9.65;100.00
62031;BME280;62035;52.094;5.112;2023-03-20T01:55:33;102059.41;;;9.61;100.00
62031;BME280;62035;52.094;5.112;2023-03-20T01:58:06;102057.50;;;9.63;100.00
62031;BME280;62035;52.094;5.112;2023-03-20T02:00:39;102061.59;;;9.56;100.00
62031;BME280;62035;52.094;5.112;2023-03-20T02:03:08;102046.81;;;9.76;100.00
62031;BME280;62035;52.094;5.112;2023-03-20T02:05:37;102059.41;;;9.85;100.00
62031;BME280;62035;52.094;5.112;2023-03-20T02:08:13;102057.03;;;9.69;100.00
62031;BME280;62035;52.094;5.112;2023-03-20T02:10:46;102058.84;;;9.92;100.00
62031;BME280;62035;52.094;5.112;2023-03-20T02:13:17;102035.38;;;9.86;100.00
62031;BME280;62035;52.094;5.112;2023-03-20T02:15:57;102039.34;;;9.81;100.00
62031;BME280;62035;52.094;5.112;2023-03-20T02:18:28;102030.91;;;9.63;100.00
62031;BME280;62035;52.094;5.112;2023-03-20T02:21:25;102020.28;;;9.63;100.00
62031;BME280;62035;52.094;5.112;2023-03-20T02:27:32;102030.22;;;9.96;100.00
62031;BME280;62035;52.094;5.112;2023-03-20T02:30:22;102024.91;;;9.72;100.00
62031;BME280;62035;52.094;5.112;2023-03-20T02:36:49;102017.16;;;9.58;100.00
62031;BME280;62035;52.094;5.112;2023-03-20T02:40:00;102014.72;;;9.55;100.00
62031;BME280;62035;52.094;5.112;2023-03-20T02:42:44;102012.94;;;9.43;100.00
62031;BME280;62035;52.094;5.112;2023-03-20T02:45:26;102021.16;;;9.40;100.00
62031;BME280;62035;52.094;5.112;2023-03-20T02:48:06;101999.38;;;9.34;100.00
62031;BME280;62035;52.094;5.112;2023-03-20T02:50:46;101992.66;;;9.18;100.00
62031;BME280;62035;52.094;5.112;2023-03-20T02:53:32;101991.06;;;9.39;100.00
62031;BME280;62035;52.094;5.112;2023-03-20T02:56:12;101968.25;;;9.36;100.00
62031;BME280;62035;52.094;5.112;2023-03-20T02:58:48;101946.31;;;9.22;100.00
62031;BME280;62035;52.094;5.112;2023-03-20T03:01:26;101951.31;;;8.90;100.00
62031;BME280;62035;52.094;5.112;2023-03-20T03:04:01;101979.34;;;8.94;100.00
62031;BME280;62035;52.094;5.112;2023-03-20T03:06:35;101984.19;;;9.13;100.00
62031;BME280;62035;52.094;5.112;2023-03-20T03:09:08;101981.09;;;9.19;100.00
62031;BME280;62035;52.094;5.112;2023-03-20T03:11:44;101979.84;;;9.12;100.00
62031;BME280;62035;52.094;5.112;2023-03-20T03:14:20;101984.28;;;9.11;100.00
62031;BME280;62035;52.094;5.112;2023-03-20T03:16:57;101993.13;;;9.12;100.00
62031;BME280;62035;52.094;5.112;2023-03-20T03:19:28;101991.56;;;8.96;100.00
62031;BME280;62035;52.094;5.112;2023-03-20T03:21:58;101988.50;;;8.90;100.00
62031;BME280;62035;52.094;5.112;2023-03-20T03:24:29;101985.22;;;8.86;100.00
62031;BME280;62035;52.094;5.112;2023-03-20T03:27:00;101987.97;;;8.85;100.00
62031;BME280;62035;52.094;5.112;2023-03-20T03:29:32;101981.75;;;8.73;100.00
62031;BME280;62035;52.094;5.112;2023-03-20T03:32:04;101985.91;;;8.64;100.00
62031;BME280;62035;52.094;5.112;2023-03-20T03:34:34;101993.38;;;8.83;100.00
62031;BME280;62035;52.094;5.112;2023-03-20T03:37:05;101983.25;;;8.77;100.00
62031;BME280;62035;52.094;5.112;2023-03-20T03:39:48;101979.34;;;8.94;100.00
62031;BME280;62035;52.094;5.112;2023-03-20T03:42:24;101968.94;;;8.91;100.00
62031;BME280;62035;52.094;5.112;2023-03-20T03:45:01;101969.47;;;8.96;100.00
62031;BME280;62035;52.094;5.112;2023-03-20T03:47:38;101964.56;;;9.02;100.00
62031;BME280;62035;52.094;5.112;2023-03-20T03:50:12;101940.19;;;8.85;100.00
62031;BME280;62035;52.094;5.112;2023-03-20T03:52:45;101955.97;;;8.99;100.00
62031;BME280;62035;52.094;5.112;2023-03-20T03:55:20;101944.09;;;8.92;100.00
62031;BME280;62035;52.094;5.112;2023-03-20T03:57:55;101936.03;;;8.93;100.00
62031;BME280;62035;52.094;5.112;2023-03-20T04:00:27;101937.31;;;8.88;100.00
62031;BME280;62035;52.094;5.112;2023-03-20T04:02:57;101937.75;;;8.82;100.00
62031;BME280;62035;52.094;5.112;2023-03-20T04:05:27;101938.72;;;8.81;100.00
62031;BME280;62035;52.094;5.112;2023-03-20T04:08:00;101930.94;;;8.90;100.00
62031;BME280;62035;52.094;5.112;2023-03-20T04:10:29;101931.44;;;8.72;100.00
62031;BME280;62035;52.094;5.112;2023-03-20T04:12:58;101932.28;;;8.72;100.00
62031;BME280;62035;52.094;5.112;2023-03-20T04:15:26;101920.41;;;8.65;100.00
62031;BME280;62035;52.094;5.112;2023-03-20T04:17:54;101934.88;;;8.85;100.00
62031;BME280;62035;52.094;5.112;2023-03-20T04:20:21;101926.47;;;8.67;100.00
62031;BME280;62035;52.094;5.112;2023-03-20T04:22:49;101931.69;;;8.43;100.00
62031;BME280;62035;52.094;5.112;2023-03-20T04:25:19;101934.00;;;8.60;100.00
62031;BME280;62035;52.094;5.112;2023-03-20T04:27:48;101938.66;;;8.69;100.00
62031;BME280;62035;52.094;5.112;2023-03-20T04:30:18;101936.66;;;8.60;100.00
62031;BME280;62035;52.094;5.112;2023-03-20T04:32:46;101938.47;;;8.60;100.00
62031;BME280;62035;52.094;5.112;2023-03-20T04:35:13;101945.63;;;8.83;100.00
62031;BME280;62035;52.094;5.112;2023-03-20T04:37:41;101937.75;;;8.82;100.00
62031;BME280;62035;52.094;5.112;2023-03-20T04:40:10;101938.34;;;8.74;100.00
62031;BME280;62035;52.094;5.112;2023-03-20T04:42:39;101946.09;;;8.77;100.00
62031;BME280;62035;52.094;5.112;2023-03-20T04:45:07;101939.84;;;8.53;100.00
62031;BME280;62035;52.094;5.112;2023-03-20T04:47:37;101939.31;;;8.60;100.00
62031;BME280;62035;52.094;5.112;2023-03-20T04:50:05;101932.31;;;8.59;100.00
62031;BME280;62035;52.094;5.112;2023-03-20T04:52:34;101933.25;;;8.71;100.00
62031;BME280;62035;52.094;5.112;2023-03-20T04:55:01;101932.50;;;8.69;100.00
62031;BME280;62035;52.094;5.112;2023-03-20T04:57:29;101931.66;;;8.68;100.00
62031;BME280;62035;52.094;5.112;2023-03-20T04:59:58;101912.47;;;8.89;100.00
62031;BME280;62035;52.094;5.112;2023-03-20T05:02:25;101922.00;;;8.67;100.00
62031;BME280;62035;52.094;5.112;2023-03-20T05:04:54;101929.34;;;8.88;100.00
62031;BME280;62035;52.094;5.112;2023-03-20T05:07:22;101917.72;;;9.01;100.00
62031;BME280;62035;52.094;5.112;2023-03-20T05:09:50;101914.16;;;8.90;100.00
62031;BME280;62035;52.094;5.112;2023-03-20T05:12:17;101917.34;;;8.95;100.00
62031;BME280;62035;52.094;5.112;2023-03-20T05:14:45;101923.03;;;9.01;100.00
62031;BME280;62035;52.094;5.112;2023-03-20T05:17:13;101901.88;;;9.13;100.00
62031;BME280;62035;52.094;5.112;2023-03-20T05:19:40;101913.28;;;9.02;100.00
62031;BME280;62035;52.094;5.112;2023-03-20T05:22:09;101923.09;;;8.89;100.00
62031;BME280;62035;52.094;5.112;2023-03-20T05:24:37;101919.78;;;8.61;100.00
62031;BME280;62035;52.094;5.112;2023-03-20T05:27:05;101921.25;;;8.78;100.00
62031;BME280;62035;52.094;5.112;2023-03-20T05:29:32;101918.97;;;8.85;100.00
62031;BME280;62035;52.094;5.112;2023-03-20T05:32:00;101918.19;;;8.95;100.00
62031;BME280;62035;52.094;5.112;2023-03-20T05:34:27;101914.06;;;8.91;100.00
62031;BME280;62035;52.094;5.112;2023-03-20T05:36:55;101917.19;;;9.09;100.00
62031;BME280;62035;52.094;5.112;2023-03-20T05:39:24;101924.84;;;8.77;100.00
62031;BME280;62035;52.094;5.112;2023-03-20T05:41:52;101931.97;;;8.77;100.00
62031;BME280;62035;52.094;5.112;2023-03-20T05:44:19;101939.38;;;9.08;100.00
62031;BME280;62035;52.094;5.112;2023-03-20T05:46:47;101940.16;;;9.21;100.00
62031;BME280;62035;52.094;5.112;2023-03-20T05:49:14;101949.47;;;9.03;100.00
62031;BME280;62035;52.094;5.112;2023-03-20T05:51:42;101947.72;;;8.91;100.00
62031;BME280;62035;52.094;5.112;2023-03-20T05:54:10;101938.16;;;8.88;100.00
62031;BME280;62035;52.094;5.112;2023-03-20T05:56:39;101949.06;;;8.96;100.00
62031;BME280;62035;52.094;5.112;2023-03-20T05:59:06;101937.34;;;9.12;100.00
62031;BME280;62035;52.094;5.112;2023-03-20T06:01:34;101936.72;;;9.08;100.00
62031;BME280;62035;52.094;5.112;2023-03-20T06:04:02;101942.63;;;8.88;100.00
62031;BME280;62035;52.094;5.112;2023-03-20T06:06:29;101946.94;;;8.78;100.00
62031;BME280;62035;52.094;5.112;2023-03-20T06:08:57;101945.56;;;8.72;100.00
62031;BME280;62035;52.094;5.112;2023-03-20T06:11:24;101942.09;;;8.83;100.00
62031;BME280;62035;52.094;5.112;2023-03-20T06:13:55;101945.81;;;9.17;100.00
62031;BME280;62035;52.094;5.112;2023-03-20T06:16:23;101950.91;;;8.83;100.00
62031;BME280;62035;52.094;5.112;2023-03-20T06:18:52;101950.69;;;8.86;100.00
62031;BME280;62035;52.094;5.112;2023-03-20T06:21:19;101953.69;;;8.82;100.00
62031;BME280;62035;52.094;5.112;2023-03-20T06:23:47;101944.28;;;8.78;100.00
62031;BME280;62035;52.094;5.112;2023-03-20T06:26:15;101959.72;;;8.84;100.00
62031;BME280;62035;52.094;5.112;2023-03-20T06:28:42;101959.00;;;8.82;100.00
62031;BME280;62035;52.094;5.112;2023-03-20T06:31:11;101963.66;;;8.91;100.00
62031;BME280;62035;52.094;5.112;2023-03-20T06:33:39;101961.91;;;8.79;100.00
62031;BME280;62035;52.094;5.112;2023-03-20T06:36:07;101963.94;;;8.99;100.00
62031;BME280;62035;52.094;5.112;2023-03-20T06:38:35;101969.09;;;9.13;100.00
62031;BME280;62035;52.094;5.112;2023-03-20T06:41:03;101971.88;;;8.75;100.00
62031;BME280;62035;52.094;5.112;2023-03-20T06:43:31;101962.09;;;9.12;100.00
62031;BME280;62035;52.094;5.112;2023-03-20T06:45:59;101965.66;;;8.87;100.00
62031;BME280;62035;52.094;5.112;2023-03-20T06:48:28;101970.06;;;8.76;100.00
62031;BME280;62035;52.094;5.112;2023-03-20T06:50:56;101969.16;;;8.88;100.00
62031;BME280;62035;52.094;5.112;2023-03-20T06:53:23;101970.72;;;8.79;100.00
62031;BME280;62035;52.094;5.112;2023-03-20T06:55:52;101967.34;;;8.64;100.00
62031;BME280;62035;52.094;5.112;2023-03-20T06:58:19;101967.91;;;8.81;100.00
62031;BME280;62035;52.094;5.112;2023-03-20T07:00:47;101959.25;;;9.02;100.00
62031;BME280;62035;52.094;5.112;2023-03-20T07:03:15;101974.34;;;9.02;100.00
62031;BME280;62035;52.094;5.112;2023-03-20T07:05:44;101968.00;;;8.92;100.00
62031;BME280;62035;52.094;5.112;2023-03-20T07:08:12;101978.66;;;9.16;100.00
62031;BME280;62035;52.094;5.112;2023-03-20T07:10:40;101969.66;;;9.29;100.00
62031;BME280;62035;52.094;5.112;2023-03-20T07:13:08;101978.34;;;9.55;100.00
62031;BME280;62035;52.094;5.112;2023-03-20T07:15:37;101963.81;;;9.24;100.00
62031;BME280;62035;52.094;5.112;2023-03-20T07:18:04;101971.00;;;9.35;100.00
62031;BME280;62035;52.094;5.112;2023-03-20T07:20:32;101970.00;;;9.25;100.00
62031;BME280;62035;52.094;5.112;2023-03-20T07:23:01;101971.47;;;9.29;100.00
62031;BME280;62035;52.094;5.112;2023-03-20T07:25:29;101966.00;;;9.19;100.00
62031;BME280;62035;52.094;5.112;2023-03-20T07:27:56;101973.78;;;9.57;100.00
62031;BME280;62035;52.094;5.112;2023-03-20T07:30:24;101964.13;;;9.32;100.00
62031;BME280;62035;52.094;5.112;2023-03-20T07:32:51;101971.28;;;9.43;100.00
62031;BME280;62035;52.094;5.112;2023-03-20T07:35:19;101964.47;;;9.63;100.00
62031;BME280;62035;52.094;5.112;2023-03-20T07:37:47;101969.91;;;9.61;100.00
62031;BME280;62035;52.094;5.112;2023-03-20T07:40:17;101964.22;;;9.55;100.00
62031;BME280;62035;52.094;5.112;2023-03-20T07:42:44;101960.88;;;9.75;100.00
62031;BME280;62035;52.094;5.112;2023-03-20T07:45:13;101970.59;;;9.52;100.00
62031;BME280;62035;52.094;5.112;2023-03-20T07:47:43;101967.84;;;9.65;100.00
62031;BME280;62035;52.094;5.112;2023-03-20T07:50:11;101964.00;;;9.69;100.00
62031;BME280;62035;52.094;5.112;2023-03-20T07:52:38;101971.25;;;9.67;100.00
62031;BME280;62035;52.094;5.112;2023-03-20T07:55:06;101964.28;;;9.77;100.00
62031;BME280;62035;52.094;5.112;2023-03-20T07:57:36;101967.66;;;9.79;100.00
62031;BME280;62035;52.094;5.112;2023-03-20T08:00:04;101968.44;;;10.03;100.00
62031;BME280;62035;52.094;5.112;2023-03-20T08:02:33;101942.41;;;9.74;100.00
62031;BME280;62035;52.094;5.112;2023-03-20T08:05:01;101964.94;;;10.03;100.00
62031;BME280;62035;52.094;5.112;2023-03-20T08:07:29;101962.53;;;9.65;100.00
62031;BME280;62035;52.094;5.112;2023-03-20T08:09:57;101955.66;;;9.62;100.00
62031;BME280;62035;52.094;5.112;2023-03-20T08:12:24;101972.28;;;9.88;100.00
62031;BME280;62035;52.094;5.112;2023-03-20T08:14:53;101960.72;;;9.65;100.00
62031;BME280;62035;52.094;5.112;2023-03-20T08:17:21;101966.31;;;9.74;100.00
62031;BME280;62035;52.094;5.112;2023-03-20T08:19:49;101960.66;;;9.78;100.00
62031;BME280;62035;52.094;5.112;2023-03-20T08:22:16;101967.13;;;9.98;100.00
62031;BME280;62035;52.094;5.112;2023-03-20T08:24:44;101957.81;;;9.92;100.00
62031;BME280;62035;52.094;5.112;2023-03-20T08:27:12;101961.06;;;10.07;100.00
62031;BME280;62035;52.094;5.112;2023-03-20T08:29:39;101957.19;;;9.89;100.00
62031;BME280;62035;52.094;5.112;2023-03-20T08:32:08;101968.19;;;9.95;100.00
62031;BME280;62035;52.094;5.112;2023-03-20T08:34:36;101967.59;;;9.92;100.00
62031;BME280;62035;52.094;5.112;2023-03-20T08:37:05;101977.06;;;9.72;100.00
62031;BME280;62035;52.094;5.112;2023-03-20T08:39:32;101976.09;;;9.73;100.00
62031;BME280;62035;52.094;5.112;2023-03-20T08:42:00;101977.34;;;9.80;100.00
62031;BME280;62035;52.094;5.112;2023-03-20T08:44:28;101983.69;;;9.66;100.00
62031;BME280;62035;52.094;5.112;2023-03-20T08:46:56;101979.38;;;9.42;100.00
62031;BME280;62035;52.094;5.112;2023-03-20T08:49:25;101991.88;;;9.52;100.00
62031;BME280;62035;52.094;5.112;2023-03-20T08:51:53;101991.41;;;9.34;100.00
62031;BME280;62035;52.094;5.112;2023-03-20T08:54:20;101996.03;;;9.20;100.00
62031;BME280;62035;52.094;5.112;2023-03-20T08:56:48;102004.28;;;9.28;100.00
62031;BME280;62035;52.094;5.112;2023-03-20T08:59:15;101991.19;;;9.14;100.00
62031;BME280;62035;52.094;5.112;2023-03-20T09:01:44;101992.41;;;9.21;100.00
62031;BME280;62035;52.094;5.112;2023-03-20T09:04:12;101990.88;;;9.18;100.00
62031;BME280;62035;52.094;5.112;2023-03-20T09:06:42;101996.19;;;9.18;100.00
62031;BME280;62035;52.094;5.112;2023-03-20T09:09:09;101998.47;;;9.23;100.00
62031;BME280;62035;52.094;5.112;2023-03-20T09:11:40;102003.34;;;9.29;100.00
62031;BME280;62035;52.094;5.112;2023-03-20T09:14:08;102003.44;;;9.27;100.00
62031;BME280;62035;52.094;5.112;2023-03-20T09:16:36;102008.44;;;9.56;100.00
62031;BME280;62035;52.094;5.112;2023-03-20T09:19:04;102003.13;;;9.56;100.00
62031;BME280;62035;52.094;5.112;2023-03-20T09:21:32;102002.03;;;9.58;100.00
62031;BME280;62035;52.094;5.112;2023-03-20T09:24:01;102010.34;;;9.30;100.00
62031;BME280;62035;52.094;5.112;2023-03-20T09:26:29;101998.75;;;9.55;100.00
62031;BME280;62035;52.094;5.112;2023-03-20T09:28:57;102004.31;;;9.87;100.00
62031;BME280;62035;52.094;5.112;2023-03-20T09:31:25;102002.22;;;9.79;100.00
62031;BME280;62035;52.094;5.112;2023-03-20T09:33:52;101984.69;;;9.77;100.00
62031;BME280;62035;52.094;5.112;2023-03-20T09:36:20;102000.94;;;9.61;100.00
62031;BME280;62035;52.094;5.112;2023-03-20T09:38:48;101999.63;;;9.66;100.00
62031;BME280;62035;52.094;5.112;2023-03-20T09:41:19;101988.75;;;9.93;100.00
62031;BME280;62035;52.094;5.112;2023-03-20T09:43:59;101990.78;;;9.90;100.00
62031;BME280;62035;52.094;5.112;2023-03-20T09:49:41;101990.88;;;10.23;100.00
62031;BME280;62035;52.094;5.112;2023-03-20T09:52:19;101989.31;;;10.21;100.00
62031;BME280;62035;52.094;5.112;2023-03-20T09:54:52;101984.22;;;10.40;100.00
62031;BME280;62035;52.094;5.112;2023-03-20T09:57:26;101981.84;;;10.37;100.00
62031;BME280;62035;52.094;5.112;2023-03-20T10:00:00;101990.06;;;10.67;100.00
62031;BME280;62035;52.094;5.112;2023-03-20T10:02:38;101979.88;;;10.50;100.00
62031;BME280;62035;52.094;5.112;2023-03-20T10:05:18;101985.47;;;10.36;100.00
62031;BME280;62035;52.094;5.112;2023-03-20T10:07:50;101988.50;;;10.08;100.00
62031;BME280;62035;52.094;5.112;2023-03-20T10:10:26;101989.78;;;10.48;100.00
62031;BME280;62035;52.094;5.112;2023-03-20T10:13:21;101988.59;;;10.63;100.00
62031;BME280;62035;52.094;5.112;2023-03-20T10:16:26;101978.56;;;10.67;100.00
62031;BME280;62035;52.094;5.112;2023-03-20T10:19:18;101969.97;;;10.30;100.00
62031;BME280;62035;52.094;5.112;2023-03-20T10:21:54;101976.25;;;10.51;100.00
62031;BME280;62035;52.094;5.112;2023-03-20T10:24:28;101955.81;;;10.74;100.00
62031;BME280;62035;52.094;5.112;2023-03-20T10:27:06;101971.91;;;10.61;100.00
62031;BME280;62035;52.094;5.112;2023-03-20T10:29:50;101961.97;;;10.63;100.00
62031;BME280;62035;52.094;5.112;2023-03-20T10:32:35;101964.78;;;10.40;100.00
62031;BME280;62035;52.094;5.112;2023-03-20T10:35:31;101965.81;;;10.93;100.00
62031;BME280;62035;52.094;5.112;2023-03-20T10:38:14;101965.19;;;11.00;100.00
62031;BME280;62035;52.094;5.112;2023-03-20T10:40:51;101958.44;;;10.85;100.00
62031;BME280;62035;52.094;5.112;2023-03-20T10:43:23;101961.22;;;10.84;100.00
62031;BME280;62035;52.094;5.112;2023-03-20T10:46:00;101965.84;;;10.48;100.00
62031;BME280;62035;52.094;5.112;2023-03-20T10:48:33;101958.94;;;10.57;100.00
62031;BME280;62035;52.094;5.112;2023-03-20T10:51:08;101945.53;;;10.58;100.00
62031;BME280;62035;52.094;5.112;2023-03-20T10:53:45;101939.72;;;10.76;100.00
62031;BME280;62035;52.094;5.112;2023-03-20T10:56:19;101949.75;;;10.72;100.00
62031;BME280;62035;52.094;5.112;2023-03-20T10:58:57;101952.66;;;10.69;100.00
62031;BME280;62035;52.094;5.112;2023-03-20T11:01:31;101960.03;;;10.54;100.00
62031;BME280;62035;52.094;5.112;2023-03-20T11:03:58;101960.78;;;10.34;100.00
62031;BME280;62035;52.094;5.112;2023-03-20T11:06:30;101956.28;;;10.57;100.00
62031;BME280;62035;52.094;5.112;2023-03-20T11:09:10;101948.44;;;10.55;100.00
62031;BME280;62035;52.094;5.112;2023-03-20T11:11:44;101951.31;;;10.75;100.00
62031;BME280;62035;52.094;5.112;2023-03-20T11:14:16;101943.22;;;10.54;100.00
62031;BME280;62035;52.094;5.112;2023-03-20T11:16:51;101938.25;;;10.72;100.00
62031;BME280;62035;52.094;5.112;2023-03-20T11:19:21;101935.31;;;10.86;100.00
62031;BME280;62035;52.094;5.112;2023-03-20T11:21:51;101932.69;;;10.63;100.00
62031;BME280;62035;52.094;5.112;2023-03-20T11:24:25;101934.69;;;10.93;100.00
62031;BME280;62035;52.094;5.112;2023-03-20T11:27:05;101932.84;;;11.05;100.00
62031;BME280;62035;52.094;5.112;2023-03-20T11:29:35;101906.56;;;11.32;100.00
62031;BME280;62035;52.094;5.112;2023-03-20T11:32:10;101913.69;;;11.64;100.00
62031;BME280;62035;52.094;5.112;2023-03-20T11:34:46;101912.56;;;11.66;100.00
62031;BME280;62035;52.094;5.112;2023-03-20T11:37:22;101892.56;;;11.51;100.00
62031;BME280;62035;52.094;5.112;2023-03-20T11:39:57;101902.34;;;11.30;100.00
62031;BME280;62035;52.094;5.112;2023-03-20T11:42:28;101900.00;;;11.36;100.00
62031;BME280;62035;52.094;5.112;2023-03-20T11:44:58;101906.91;;;11.18;100.00
62031;BME280;62035;52.094;5.112;2023-03-20T11:47:31;101902.00;;;11.23;100.00
62031;BME280;62035;52.094;5.112;2023-03-20T11:50:04;101907.28;;;11.34;100.00
62031;BME280;62035;52.094;5.112;2023-03-20T11:52:34;101908.75;;;11.07;100.00
62031;BME280;62035;52.094;5.112;2023-03-20T11:55:07;101908.72;;;10.75;100.00
62031;BME280;62035;52.094;5.112;2023-03-20T11:57:55;101905.13;;;11.08;100.00
62031;BME280;62035;52.094;5.112;2023-03-20T12:00:27;101908.91;;;11.26;100.00
62031;BME280;62035;52.094;5.112;2023-03-20T12:06:05;101918.91;;;10.69;100.00
62031;BME280;62035;52.094;5.112;2023-03-20T12:08:35;101920.22;;;10.64;100.00
62031;BME280;62035;52.094;5.112;2023-03-20T12:11:18;101932.56;;;10.76;100.00
62031;BME280;62035;52.094;5.112;2023-03-20T12:14:15;101926.03;;;10.58;100.00
62031;BME280;62035;52.094;5.112;2023-03-20T12:16:51;101918.06;;;10.58;100.00
62031;BME280;62035;52.094;5.112;2023-03-20T12:19:29;101931.91;;;10.84;100.00
62031;BME280;62035;52.094;5.112;2023-03-20T12:22:01;101925.53;;;10.75;100.00
62031;BME280;62035;52.094;5.112;2023-03-20T12:24:44;101922.53;;;10.68;100.00
62031;BME280;62035;52.094;5.112;2023-03-20T12:27:23;101925.69;;;10.51;100.00
62031;BME280;62035;52.094;5.112;2023-03-20T12:29:59;101925.56;;;10.53;100.00
62031;BME280;62035;52.094;5.112;2023-03-20T12:32:35;101918.19;;;10.45;100.00
62031;BME280;62035;52.094;5.112;2023-03-20T12:35:14;101930.31;;;10.38;100.00
62031;BME280;62035;52.094;5.112;2023-03-20T12:37:45;101913.59;;;10.47;100.00
62031;BME280;62035;52.094;5.112;2023-03-20T12:40:15;101927.25;;;10.54;100.00
62031;BME280;62035;52.094;5.112;2023-03-20T12:42:56;101921.81;;;10.55;100.00
62031;BME280;62035;52.094;5.112;2023-03-20T12:45:35;101915.50;;;10.67;100.00
62031;BME280;62035;52.094;5.112;2023-03-20T12:48:31;101921.81;;;10.66;100.00
62031;BME280;62035;52.094;5.112;2023-03-20T12:51:20;101904.88;;;10.56;100.00
62031;BME280;62035;52.094;5.112;2023-03-20T12:54:08;101901.84;;;10.61;100.00
62031;BME280;62035;52.094;5.112;2023-03-20T12:56:56;101904.88;;;10.56;100.00
62031;BME280;62035;52.094;5.112;2023-03-20T12:59:43;101902.31;;;10.66;100.00
62031;BME280;62035;52.094;5.112;2023-03-20T13:02:29;101901.59;;;10.53;100.00
62031;BME280;62035;52.094;5.112;2023-03-20T13:05:18;101899.69;;;10.44;100.00
62031;BME280;62035;52.094;5.112;2023-03-20T13:08:08;101897.28;;;10.29;100.00
62031;BME280;62035;52.094;5.112;2023-03-20T13:10:51;101895.00;;;10.36;100.00
62031;BME280;62035;52.094;5.112;2023-03-20T13:13:30;101890.34;;;10.49;100.00
62031;BME280;62035;52.094;5.112;2023-03-20T13:16:10;101888.91;;;10.45;100.00
62031;BME280;62035;52.094;5.112;2023-03-20T13:19:11;101883.63;;;10.23;100.00
62031;BME280;62035;52.094;5.112;2023-03-20T13:21:52;101879.03;;;10.36;100.00
62031;BME280;62035;52.094;5.112;2023-03-20T13:24:37;101881.88;;;10.55;100.00
62031;BME280;62035;52.094;5.112;2023-03-20T13:27:17;101876.31;;;10.58;100.00
62031;BME280;62035;52.094;5.112;2023-03-20T13:29:58;101880.69;;;10.48;100.00